sensor_id;sensor_type;location;lat;lon;timestamp;P1;durP1;ratioP1;P2;durP2;ratioP2
39782;SDS011;25462;51.164;17.100;2023-03-01T00:01:39;70.30;;;32.80;;
39782;SDS011;25462;51.164;17.100;2023-03-01T00:06:43;111.70;;;47.70;;
39782;SDS011;25462;51.164;17.100;2023-03-01T00:11:50;105.40;;;44.10;;
39782;SDS011;25462;51.164;17.100;2023-03-01T00:16:54;114.80;;;43.70;;
39782;SDS011;25462;51.164;17.100;2023-03-01T00:21:58;105.40;;;41.80;;
39782;SDS011;25462;51.164;17.100;2023-03-01T00:27:02;75.70;;;34.70;;
39782;SDS011;25462;51.164;17.100;2023-03-01T00:32:06;86.40;;;36.50;;
39782;SDS011;25462;51.164;17.100;2023-03-01T00:37:10;75.20;;;31.00;;
39782;SDS011;25462;51.164;17.100;2023-03-01T00:42:15;70.30;;;31.20;;
39782;SDS011;25462;51.164;17.100;2023-03-01T00:47:19;77.60;;;30.50;;
39782;SDS011;25462;51.164;17.100;2023-03-01T00:52:23;73.20;;;29.70;;
39782;SDS011;25462;51.164;17.100;2023-03-01T00:57:28;70.30;;;29.10;;
39782;SDS011;25462;51.164;17.100;2023-03-01T01:02:32;79.70;;;34.30;;
39782;SDS011;25462;51.164;17.100;2023-03-01T01:07:37;86.90;;;37.30;;
39782;SDS011;25462;51.164;17.100;2023-03-01T01:12:44;90.20;;;38.60;;
39782;SDS011;25462;51.164;17.100;2023-03-01T01:17:50;79.40;;;34.40;;
39782;SDS011;25462;51.164;17.100;2023-03-01T01:22:54;75.50;;;33.70;;
39782;SDS011;25462;51.164;17.100;2023-03-01T01:27:59;83.90;;;33.10;;
39782;SDS011;25462;51.164;17.100;2023-03-01T01:33:02;81.90;;;33.30;;
39782;SDS011;25462;51.164;17.100;2023-03-01T01:38:06;83.90;;;34.90;;
39782;SDS011;25462;51.164;17.100;2023-03-01T01:43:24;87.60;;;35.70;;
39782;SDS011;25462;51.164;17.100;2023-03-01T01:48:41;125.80;;;46.00;;
39782;SDS011;25462;51.164;17.100;2023-03-01T01:53:50;154.50;;;53.40;;
39782;SDS011;25462;51.164;17.100;2023-03-01T01:58:57;103.60;;;42.80;;
39782;SDS011;25462;51.164;17.100;2023-03-01T02:04:01;97.30;;;39.80;;
39782;SDS011;25462;51.164;17.100;2023-03-01T02:09:07;94.50;;;41.30;;
39782;SDS011;25462;51.164;17.100;2023-03-01T02:14:14;94.50;;;39.40;;
39782;SDS011;25462;51.164;17.100;2023-03-01T02:19:43;95.20;;;39.20;;
39782;SDS011;25462;51.164;17.100;2023-03-01T02:30:08;82.10;;;34.90;;
39782;SDS011;25462;51.164;17.100;2023-03-01T02:35:16;93.60;;;39.80;;
39782;SDS011;25462;51.164;17.100;2023-03-01T02:40:21;96.00;;;39.70;;
39782;SDS011;25462;51.164;17.100;2023-03-01T02:45:25;84.70;;;36.50;;
39782;SDS011;25462;51.164;17.100;2023-03-01T02:55:33;92.30;;;37.70;;
39782;SDS011;25462;51.164;17.100;2023-03-01T03:00:38;93.70;;;38.10;;
39782;SDS011;25462;51.164;17.100;2023-03-01T03:05:51;90.50;;;37.40;;
39782;SDS011;25462;51.164;17.100;2023-03-01T03:10:55;98.30;;;38.00;;
39782;SDS011;25462;51.164;17.100;2023-03-01T03:15:59;101.00;;;40.60;;
39782;SDS011;25462;51.164;17.100;2023-03-01T03:21:11;118.50;;;47.20;;
39782;SDS011;25462;51.164;17.100;2023-03-01T03:26:15;115.20;;;42.70;;
39782;SDS011;25462;51.164;17.100;2023-03-01T03:31:28;112.20;;;42.50;;
39782;SDS011;25462;51.164;17.100;2023-03-01T03:36:32;117.60;;;45.40;;
39782;SDS011;25462;51.164;17.100;2023-03-01T03:41:36;123.20;;;48.80;;
39782;SDS011;25462;51.164;17.100;2023-03-01T03:46:39;118.30;;;47.70;;
39782;SDS011;25462;51.164;17.100;2023-03-01T03:51:45;104.10;;;42.60;;
39782;SDS011;25462;51.164;17.100;2023-03-01T03:56:49;104.30;;;41.30;;
39782;SDS011;25462;51.164;17.100;2023-03-01T04:01:53;107.50;;;41.70;;
39782;SDS011;25462;51.164;17.100;2023-03-01T04:06:57;110.90;;;42.70;;
39782;SDS011;25462;51.164;17.100;2023-03-01T04:12:00;124.30;;;47.40;;
39782;SDS011;25462;51.164;17.100;2023-03-01T04:17:04;113.70;;;45.50;;
39782;SDS011;25462;51.164;17.100;2023-03-01T04:22:09;125.50;;;47.30;;
39782;SDS011;25462;51.164;17.100;2023-03-01T04:27:14;102.70;;;42.40;;
39782;SDS011;25462;51.164;17.100;2023-03-01T04:32:19;117.70;;;52.60;;
39782;SDS011;25462;51.164;17.100;2023-03-01T04:37:23;104.50;;;44.80;;
39782;SDS011;25462;51.164;17.100;2023-03-01T04:42:29;108.50;;;43.50;;
39782;SDS011;25462;51.164;17.100;2023-03-01T04:47:33;88.60;;;38.90;;
39782;SDS011;25462;51.164;17.100;2023-03-01T04:52:43;106.80;;;42.40;;
39782;SDS011;25462;51.164;17.100;2023-03-01T04:57:48;107.20;;;42.70;;
39782;SDS011;25462;51.164;17.100;2023-03-01T05:02:53;107.50;;;44.00;;
39782;SDS011;25462;51.164;17.100;2023-03-01T05:08:00;94.30;;;41.20;;
39782;SDS011;25462;51.164;17.100;2023-03-01T05:13:05;104.00;;;40.50;;
39782;SDS011;25462;51.164;17.100;2023-03-01T05:18:09;96.70;;;40.10;;
39782;SDS011;25462;51.164;17.100;2023-03-01T05:23:15;88.30;;;37.40;;
39782;SDS011;25462;51.164;17.100;2023-03-01T05:28:19;91.30;;;39.80;;
39782;SDS011;25462;51.164;17.100;2023-03-01T05:33:24;96.00;;;40.80;;
39782;SDS011;25462;51.164;17.100;2023-03-01T05:38:28;121.40;;;50.40;;
39782;SDS011;25462;51.164;17.100;2023-03-01T05:43:32;156.50;;;59.60;;
39782;SDS011;25462;51.164;17.100;2023-03-01T05:48:39;121.60;;;50.90;;
39782;SDS011;25462;51.164;17.100;2023-03-01T05:53:43;113.60;;;44.60;;
39782;SDS011;25462;51.164;17.100;2023-03-01T05:58:48;121.60;;;51.00;;
39782;SDS011;25462;51.164;17.100;2023-03-01T06:03:53;112.00;;;46.90;;
39782;SDS011;25462;51.164;17.100;2023-03-01T06:08:57;115.00;;;46.40;;
39782;SDS011;25462;51.164;17.100;2023-03-01T06:14:00;105.40;;;45.00;;
39782;SDS011;25462;51.164;17.100;2023-03-01T06:19:04;114.30;;;48.20;;
39782;SDS011;25462;51.164;17.100;2023-03-01T06:24:08;103.40;;;43.40;;
39782;SDS011;25462;51.164;17.100;2023-03-01T06:29:12;111.50;;;45.50;;
39782;SDS011;25462;51.164;17.100;2023-03-01T06:34:16;97.20;;;41.80;;
39782;SDS011;25462;51.164;17.100;2023-03-01T06:39:21;99.50;;;43.00;;
39782;SDS011;25462;51.164;17.100;2023-03-01T06:44:26;91.50;;;39.60;;
39782;SDS011;25462;51.164;17.100;2023-03-01T06:49:30;132.10;;;61.40;;
39782;SDS011;25462;51.164;17.100;2023-03-01T06:54:33;122.90;;;53.90;;
39782;SDS011;25462;51.164;17.100;2023-03-01T06:59:37;121.60;;;52.30;;
39782;SDS011;25462;51.164;17.100;2023-03-01T07:04:42;128.40;;;59.10;;
39782;SDS011;25462;51.164;17.100;2023-03-01T07:09:46;113.80;;;52.30;;
39782;SDS011;25462;51.164;17.100;2023-03-01T07:14:52;95.30;;;46.70;;
39782;SDS011;25462;51.164;17.100;2023-03-01T07:19:56;128.30;;;57.80;;
39782;SDS011;25462;51.164;17.100;2023-03-01T07:25:01;99.10;;;44.60;;
39782;SDS011;25462;51.164;17.100;2023-03-01T07:30:09;115.80;;;53.70;;
39782;SDS011;25462;51.164;17.100;2023-03-01T07:35:15;91.60;;;41.60;;
39782;SDS011;25462;51.164;17.100;2023-03-01T07:40:19;92.20;;;42.20;;
39782;SDS011;25462;51.164;17.100;2023-03-01T07:45:25;86.40;;;40.60;;
39782;SDS011;25462;51.164;17.100;2023-03-01T07:50:30;81.40;;;38.30;;
39782;SDS011;25462;51.164;17.100;2023-03-01T07:55:35;75.40;;;35.30;;
39782;SDS011;25462;51.164;17.100;2023-03-01T08:00:39;75.20;;;35.10;;
39782;SDS011;25462;51.164;17.100;2023-03-01T08:05:45;69.20;;;33.90;;
39782;SDS011;25462;51.164;17.100;2023-03-01T08:10:50;76.40;;;35.10;;
39782;SDS011;25462;51.164;17.100;2023-03-01T08:16:03;69.40;;;33.90;;
39782;SDS011;25462;51.164;17.100;2023-03-01T08:21:16;70.00;;;34.00;;
39782;SDS011;25462;51.164;17.100;2023-03-01T08:26:23;67.20;;;32.50;;
39782;SDS011;25462;51.164;17.100;2023-03-01T08:31:33;69.00;;;34.90;;
39782;SDS011;25462;51.164;17.100;2023-03-01T08:36:42;72.30;;;32.70;;
39782;SDS011;25462;51.164;17.100;2023-03-01T08:41:48;72.00;;;34.70;;
39782;SDS011;25462;51.164;17.100;2023-03-01T08:46:52;63.00;;;33.00;;
39782;SDS011;25462;51.164;17.100;2023-03-01T08:51:59;53.70;;;28.80;;
39782;SDS011;25462;51.164;17.100;2023-03-01T08:57:04;46.80;;;23.80;;
39782;SDS011;25462;51.164;17.100;2023-03-01T09:02:12;49.20;;;24.00;;
39782;SDS011;25462;51.164;17.100;2023-03-01T09:07:19;48.80;;;24.80;;
39782;SDS011;25462;51.164;17.100;2023-03-01T09:12:25;40.50;;;22.10;;
39782;SDS011;25462;51.164;17.100;2023-03-01T09:17:29;48.40;;;23.60;;
39782;SDS011;25462;51.164;17.100;2023-03-01T09:22:34;39.40;;;22.60;;
39782;SDS011;25462;51.164;17.100;2023-03-01T09:27:39;43.40;;;22.20;;
39782;SDS011;25462;51.164;17.100;2023-03-01T09:32:43;40.30;;;20.50;;
39782;SDS011;25462;51.164;17.100;2023-03-01T09:37:48;37.60;;;20.30;;
39782;SDS011;25462;51.164;17.100;2023-03-01T09:42:56;32.10;;;17.10;;
39782;SDS011;25462;51.164;17.100;2023-03-01T09:48:22;42.30;;;22.00;;
39782;SDS011;25462;51.164;17.100;2023-03-01T09:53:32;36.20;;;20.10;;
39782;SDS011;25462;51.164;17.100;2023-03-01T09:58:53;40.60;;;20.90;;
39782;SDS011;25462;51.164;17.100;2023-03-01T10:09:33;38.60;;;19.90;;
39782;SDS011;25462;51.164;17.100;2023-03-01T10:14:57;32.10;;;17.70;;
39782;SDS011;25462;51.164;17.100;2023-03-01T10:20:22;33.10;;;17.10;;
39782;SDS011;25462;51.164;17.100;2023-03-01T10:30:44;31.50;;;16.70;;
39782;SDS011;25462;51.164;17.100;2023-03-01T10:35:49;30.90;;;17.30;;
39782;SDS011;25462;51.164;17.100;2023-03-01T10:40:58;28.90;;;15.80;;
39782;SDS011;25462;51.164;17.100;2023-03-01T10:46:10;27.90;;;14.90;;
39782;SDS011;25462;51.164;17.100;2023-03-01T10:51:31;27.30;;;14.10;;
39782;SDS011;25462;51.164;17.100;2023-03-01T10:56:57;27.90;;;15.20;;
39782;SDS011;25462;51.164;17.100;2023-03-01T11:07:44;31.20;;;17.50;;
39782;SDS011;25462;51.164;17.100;2023-03-01T11:13:33;27.80;;;15.60;;
39782;SDS011;25462;51.164;17.100;2023-03-01T11:18:29;33.00;;;17.80;;
39782;SDS011;25462;51.164;17.100;2023-03-01T11:23:49;30.20;;;16.80;;
39782;SDS011;25462;51.164;17.100;2023-03-01T11:28:59;24.30;;;15.30;;
39782;SDS011;25462;51.164;17.100;2023-03-01T11:34:14;33.60;;;16.30;;
39782;SDS011;25462;51.164;17.100;2023-03-01T11:44:56;22.40;;;12.80;;
39782;SDS011;25462;51.164;17.100;2023-03-01T11:50:09;17.40;;;9.80;;
39782;SDS011;25462;51.164;17.100;2023-03-01T11:55:29;22.10;;;11.10;;
39782;SDS011;25462;51.164;17.100;2023-03-01T12:16:59;14.10;;;8.40;;
39782;SDS011;25462;51.164;17.100;2023-03-01T12:22:17;15.80;;;8.60;;
39782;SDS011;25462;51.164;17.100;2023-03-01T12:32:59;19.30;;;9.60;;
39782;SDS011;25462;51.164;17.100;2023-03-01T12:38:37;19.40;;;10.60;;
39782;SDS011;25462;51.164;17.100;2023-03-01T12:43:58;19.20;;;10.20;;
39782;SDS011;25462;51.164;17.100;2023-03-01T12:49:16;22.30;;;12.20;;
39782;SDS011;25462;51.164;17.100;2023-03-01T12:54:26;25.60;;;13.10;;
39782;SDS011;25462;51.164;17.100;2023-03-01T13:00:06;77.70;;;31.20;;
39782;SDS011;25462;51.164;17.100;2023-03-01T13:10:46;29.70;;;16.70;;
39782;SDS011;25462;51.164;17.100;2023-03-01T13:16:19;21.60;;;12.60;;
39782;SDS011;25462;51.164;17.100;2023-03-01T13:21:30;21.80;;;12.30;;
39782;SDS011;25462;51.164;17.100;2023-03-01T13:26:53;19.70;;;12.30;;
39782;SDS011;25462;51.164;17.100;2023-03-01T13:32:45;21.00;;;12.50;;
39782;SDS011;25462;51.164;17.100;2023-03-01T13:37:47;21.50;;;12.70;;
39782;SDS011;25462;51.164;17.100;2023-03-01T13:42:52;22.20;;;13.00;;
39782;SDS011;25462;51.164;17.100;2023-03-01T13:48:15;21.90;;;12.80;;
39782;SDS011;25462;51.164;17.100;2023-03-01T13:53:24;24.30;;;12.90;;
39782;SDS011;25462;51.164;17.100;2023-03-01T13:58:30;20.70;;;11.80;;
39782;SDS011;25462;51.164;17.100;2023-03-01T14:03:40;21.80;;;12.20;;
39782;SDS011;25462;51.164;17.100;2023-03-01T14:08:46;21.90;;;12.20;;
39782;SDS011;25462;51.164;17.100;2023-03-01T14:14:05;20.00;;;12.20;;
39782;SDS011;25462;51.164;17.100;2023-03-01T14:19:19;19.80;;;12.10;;
39782;SDS011;25462;51.164;17.100;2023-03-01T14:24:38;35.90;;;16.40;;
39782;SDS011;25462;51.164;17.100;2023-03-01T14:29:45;24.60;;;13.10;;
39782;SDS011;25462;51.164;17.100;2023-03-01T14:34:59;20.70;;;12.30;;
39782;SDS011;25462;51.164;17.100;2023-03-01T14:40:03;22.20;;;12.40;;
39782;SDS011;25462;51.164;17.100;2023-03-01T14:45:09;24.30;;;13.40;;
39782;SDS011;25462;51.164;17.100;2023-03-01T14:50:35;24.40;;;13.80;;
39782;SDS011;25462;51.164;17.100;2023-03-01T14:55:55;24.00;;;12.80;;
39782;SDS011;25462;51.164;17.100;2023-03-01T15:01:03;20.30;;;12.40;;
39782;SDS011;25462;51.164;17.100;2023-03-01T15:06:08;19.90;;;12.90;;
39782;SDS011;25462;51.164;17.100;2023-03-01T15:16:33;22.70;;;12.40;;
39782;SDS011;25462;51.164;17.100;2023-03-01T15:21:38;21.40;;;12.20;;
39782;SDS011;25462;51.164;17.100;2023-03-01T15:26:43;22.70;;;12.80;;
39782;SDS011;25462;51.164;17.100;2023-03-01T15:31:56;22.50;;;12.10;;
39782;SDS011;25462;51.164;17.100;2023-03-01T15:37:02;25.20;;;13.10;;
39782;SDS011;25462;51.164;17.100;2023-03-01T15:42:35;21.80;;;12.50;;
39782;SDS011;25462;51.164;17.100;2023-03-01T15:47:34;23.40;;;13.60;;
39782;SDS011;25462;51.164;17.100;2023-03-01T15:52:40;26.20;;;12.90;;
39782;SDS011;25462;51.164;17.100;2023-03-01T15:57:45;23.20;;;12.70;;
39782;SDS011;25462;51.164;17.100;2023-03-01T16:02:50;31.20;;;15.10;;
39782;SDS011;25462;51.164;17.100;2023-03-01T16:07:58;43.10;;;19.30;;
39782;SDS011;25462;51.164;17.100;2023-03-01T16:13:03;33.40;;;16.20;;
39782;SDS011;25462;51.164;17.100;2023-03-01T16:18:07;47.80;;;17.90;;
39782;SDS011;25462;51.164;17.100;2023-03-01T16:23:14;35.50;;;20.40;;
39782;SDS011;25462;51.164;17.100;2023-03-01T16:28:24;66.90;;;27.90;;
39782;SDS011;25462;51.164;17.100;2023-03-01T16:33:32;99.50;;;39.90;;
39782;SDS011;25462;51.164;17.100;2023-03-01T16:38:39;120.60;;;50.00;;
39782;SDS011;25462;51.164;17.100;2023-03-01T16:43:46;66.80;;;33.30;;
39782;SDS011;25462;51.164;17.100;2023-03-01T16:48:55;51.10;;;27.70;;
39782;SDS011;25462;51.164;17.100;2023-03-01T16:54:03;45.10;;;21.80;;
39782;SDS011;25462;51.164;17.100;2023-03-01T16:59:08;47.20;;;23.40;;
39782;SDS011;25462;51.164;17.100;2023-03-01T17:04:13;50.20;;;25.00;;
39782;SDS011;25462;51.164;17.100;2023-03-01T17:09:17;52.00;;;25.60;;
39782;SDS011;25462;51.164;17.100;2023-03-01T17:14:34;62.80;;;27.60;;
39782;SDS011;25462;51.164;17.100;2023-03-01T17:19:43;57.30;;;25.20;;
39782;SDS011;25462;51.164;17.100;2023-03-01T17:24:48;52.50;;;24.90;;
39782;SDS011;25462;51.164;17.100;2023-03-01T17:29:57;52.90;;;25.30;;
39782;SDS011;25462;51.164;17.100;2023-03-01T17:35:02;52.80;;;23.40;;
39782;SDS011;25462;51.164;17.100;2023-03-01T17:40:09;46.20;;;21.20;;
39782;SDS011;25462;51.164;17.100;2023-03-01T17:45:17;39.80;;;20.10;;
39782;SDS011;25462;51.164;17.100;2023-03-01T17:50:23;52.50;;;22.40;;
39782;SDS011;25462;51.164;17.100;2023-03-01T17:55:29;50.20;;;21.40;;
39782;SDS011;25462;51.164;17.100;2023-03-01T18:00:37;36.00;;;16.60;;
39782;SDS011;25462;51.164;17.100;2023-03-01T18:05:43;57.90;;;27.10;;
39782;SDS011;25462;51.164;17.100;2023-03-01T18:10:56;78.30;;;33.60;;
39782;SDS011;25462;51.164;17.100;2023-03-01T18:16:06;114.80;;;47.40;;
39782;SDS011;25462;51.164;17.100;2023-03-01T18:21:14;98.70;;;43.80;;
39782;SDS011;25462;51.164;17.100;2023-03-01T18:26:21;80.90;;;35.10;;
39782;SDS011;25462;51.164;17.100;2023-03-01T18:31:29;45.20;;;21.10;;
39782;SDS011;25462;51.164;17.100;2023-03-01T18:36:36;42.40;;;19.10;;
39782;SDS011;25462;51.164;17.100;2023-03-01T18:41:44;36.60;;;17.30;;
39782;SDS011;25462;51.164;17.100;2023-03-01T18:46:54;34.20;;;16.10;;
39782;SDS011;25462;51.164;17.100;2023-03-01T18:52:02;50.50;;;23.70;;
39782;SDS011;25462;51.164;17.100;2023-03-01T18:57:11;45.40;;;21.20;;
39782;SDS011;25462;51.164;17.100;2023-03-01T19:02:15;46.70;;;20.60;;
39782;SDS011;25462;51.164;17.100;2023-03-01T19:07:20;44.60;;;20.40;;
39782;SDS011;25462;51.164;17.100;2023-03-01T19:12:25;48.50;;;21.00;;
39782;SDS011;25462;51.164;17.100;2023-03-01T19:17:33;46.40;;;22.60;;
39782;SDS011;25462;51.164;17.100;2023-03-01T19:22:41;118.40;;;40.30;;
39782;SDS011;25462;51.164;17.100;2023-03-01T19:27:46;143.40;;;50.60;;
39782;SDS011;25462;51.164;17.100;2023-03-01T19:32:53;104.80;;;40.40;;
39782;SDS011;25462;51.164;17.100;2023-03-01T19:38:00;94.10;;;35.30;;
39782;SDS011;25462;51.164;17.100;2023-03-01T19:43:09;90.10;;;35.60;;
39782;SDS011;25462;51.164;17.100;2023-03-01T19:48:15;91.70;;;33.50;;
39782;SDS011;25462;51.164;17.100;2023-03-01T19:53:25;424.60;;;189.00;;
39782;SDS011;25462;51.164;17.100;2023-03-01T19:58:36;631.70;;;249.30;;
39782;SDS011;25462;51.164;17.100;2023-03-01T20:03:41;721.00;;;267.60;;
39782;SDS011;25462;51.164;17.100;2023-03-01T20:08:48;1159.80;;;424.00;;
39782;SDS011;25462;51.164;17.100;2023-03-01T20:13:56;737.60;;;278.70;;
39782;SDS011;25462;51.164;17.100;2023-03-01T20:19:03;428.10;;;148.10;;
39782;SDS011;25462;51.164;17.100;2023-03-01T20:24:11;259.20;;;94.10;;
39782;SDS011;25462;51.164;17.100;2023-03-01T20:29:17;211.70;;;74.50;;
39782;SDS011;25462;51.164;17.100;2023-03-01T20:34:25;204.30;;;75.20;;
39782;SDS011;25462;51.164;17.100;2023-03-01T20:39:30;185.20;;;65.90;;
39782;SDS011;25462;51.164;17.100;2023-03-01T20:44:37;185.80;;;72.10;;
39782;SDS011;25462;51.164;17.100;2023-03-01T20:49:50;207.40;;;78.00;;
39782;SDS011;25462;51.164;17.100;2023-03-01T20:54:55;93.90;;;38.00;;
39782;SDS011;25462;51.164;17.100;2023-03-01T21:00:02;110.40;;;43.80;;
39782;SDS011;25462;51.164;17.100;2023-03-01T21:05:08;418.20;;;143.20;;
39782;SDS011;25462;51.164;17.100;2023-03-01T21:10:17;434.60;;;147.30;;
39782;SDS011;25462;51.164;17.100;2023-03-01T21:15:22;584.60;;;203.70;;
39782;SDS011;25462;51.164;17.100;2023-03-01T21:20:35;241.40;;;92.80;;
39782;SDS011;25462;51.164;17.100;2023-03-01T21:25:46;234.10;;;86.70;;
39782;SDS011;25462;51.164;17.100;2023-03-01T21:30:50;239.20;;;84.70;;
39782;SDS011;25462;51.164;17.100;2023-03-01T21:36:01;182.10;;;68.10;;
39782;SDS011;25462;51.164;17.100;2023-03-01T21:41:10;280.50;;;98.70;;
39782;SDS011;25462;51.164;17.100;2023-03-01T21:46:22;268.50;;;92.90;;
39782;SDS011;25462;51.164;17.100;2023-03-01T21:51:27;247.80;;;90.50;;
39782;SDS011;25462;51.164;17.100;2023-03-01T21:56:33;214.70;;;81.60;;
39782;SDS011;25462;51.164;17.100;2023-03-01T22:01:41;213.30;;;80.70;;
39782;SDS011;25462;51.164;17.100;2023-03-01T22:06:45;207.30;;;79.70;;
39782;SDS011;25462;51.164;17.100;2023-03-01T22:11:52;214.00;;;79.50;;
39782;SDS011;25462;51.164;17.100;2023-03-01T22:16:56;208.00;;;73.70;;
39782;SDS011;25462;51.164;17.100;2023-03-01T22:22:01;158.60;;;60.70;;
39782;SDS011;25462;51.164;17.100;2023-03-01T22:27:06;136.30;;;52.90;;
39782;SDS011;25462;51.164;17.100;2023-03-01T22:32:09;164.60;;;59.00;;
39782;SDS011;25462;51.164;17.100;2023-03-01T22:37:15;158.90;;;62.20;;
39782;SDS011;25462;51.164;17.100;2023-03-01T22:42:18;166.90;;;66.00;;
39782;SDS011;25462;51.164;17.100;2023-03-01T22:47:22;166.80;;;66.70;;
39782;SDS011;25462;51.164;17.100;2023-03-01T22:52:26;175.30;;;71.20;;
39782;SDS011;25462;51.164;17.100;2023-03-01T22:57:30;232.20;;;96.30;;
39782;SDS011;25462;51.164;17.100;2023-03-01T23:02:33;155.80;;;63.90;;
39782;SDS011;25462;51.164;17.100;2023-03-01T23:07:40;159.10;;;63.50;;
39782;SDS011;25462;51.164;17.100;2023-03-01T23:12:44;160.60;;;59.50;;
39782;SDS011;25462;51.164;17.100;2023-03-01T23:17:48;152.00;;;56.30;;
39782;SDS011;25462;51.164;17.100;2023-03-01T23:22:52;133.80;;;50.30;;
39782;SDS011;25462;51.164;17.100;2023-03-01T23:27:55;144.20;;;53.40;;
39782;SDS011;25462;51.164;17.100;2023-03-01T23:32:59;131.00;;;52.20;;
39782;SDS011;25462;51.164;17.100;2023-03-01T23:38:03;133.10;;;54.30;;
39782;SDS011;25462;51.164;17.100;2023-03-01T23:43:07;135.10;;;48.70;;
39782;SDS011;25462;51.164;17.100;2023-03-01T23:48:11;136.90;;;49.70;;
39782;SDS011;25462;51.164;17.100;2023-03-01T23:53:16;142.50;;;55.20;;
39782;SDS011;25462;51.164;17.100;2023-03-01T23:58:20;153.10;;;57.70;;
